Time;durP1;ratioP1;P1;durP2;ratioP2;P2;SDS_P1;SDS_P2;PMS_P1;PMS_P2;Temp;Humidity;BMP_temperature;BMP_pressure;BME280_temperature;BME280_humidity;BME280_pressure;Samples;Min_cycle;Max_cycle;Signal;HPM_P1;HPM_P2
2023/03/11 00:00:43;;;;;;;5.10;3.08;;;;;;;11.04;nan;-24125.38;5013783;28;20164;-73
2023/03/11 00:03:10;;;;;;;4.53;3.35;;;;;;;10.94;nan;-24122.56;5013656;28;20192;-73
2023/03/11 00:05:38;;;;;;;3.63;2.85;;;;;;;10.81;nan;-24118.91;5013884;28;20705;-73
2023/03/11 00:08:05;;;;;;;4.60;3.20;;;;;;;10.86;nan;-24120.44;5012399;28;20176;-74
2023/03/11 00:10:39;;;;;;;3.95;2.72;;;;;;;10.87;nan;-24120.59;5013966;28;20186;-73
2023/03/11 00:13:07;;;;;;;4.28;3.35;;;;;;;10.84;nan;-24119.75;5014083;28;20180;-74
2023/03/11 00:15:33;;;;;;;3.83;2.67;;;;;;;10.75;nan;-24117.19;5012313;28;20168;-74
2023/03/11 00:17:59;;;;;;;5.10;2.88;;;;;;;11.01;nan;-24124.53;5011521;28;20188;-73
2023/03/11 00:20:30;;;;;;;5.97;3.22;;;;;;;10.52;nan;-24111.00;5009085;28;20709;-73
2023/03/11 00:22:56;;;;;;;5.70;3.17;;;;;;;10.75;nan;-24117.19;5013030;28;20255;-72
2023/03/11 00:25:23;;;;;;;5.18;3.28;;;;;;;11.16;nan;-24128.63;5012971;28;20199;-73
2023/03/11 00:27:49;;;;;;;8.07;3.90;;;;;;;11.16;nan;-24128.63;5012997;28;20242;-72
2023/03/11 00:30:21;;;;;;;5.47;3.88;;;;;;;11.07;nan;-24126.38;5011910;28;20570;-73
2023/03/11 00:32:48;;;;;;;3.17;2.55;;;;;;;10.76;nan;-24117.63;5013374;28;20164;-73
2023/03/11 00:35:16;;;;;;;5.68;3.40;;;;;;;10.97;nan;-24123.41;5013290;28;20255;-73
2023/03/11 00:37:44;;;;;;;4.90;3.25;;;;;;;10.97;nan;-24123.53;5012759;28;20207;-74
2023/03/11 00:40:15;;;;;;;5.60;3.50;;;;;;;10.87;nan;-24120.59;5012938;28;20668;-74
2023/03/11 00:42:41;;;;;;;5.15;3.65;;;;;;;10.87;nan;-24120.59;5013459;28;20176;-73
2023/03/11 00:45:07;;;;;;;4.45;3.25;;;;;;;10.73;nan;-24116.63;5013922;28;20286;-72
2023/03/11 00:47:33;;;;;;;5.55;4.00;;;;;;;10.74;nan;-24117.06;5012844;28;20168;-73
2023/03/11 00:49:59;;;;;;;6.65;3.03;;;;;;;10.58;nan;-24112.69;5012649;28;20191;-73
2023/03/11 00:52:24;;;;;;;5.80;3.28;;;;;;;10.62;nan;-24113.81;5012667;28;20180;-72
2023/03/11 00:54:49;;;;;;;4.82;3.15;;;;;;;10.52;nan;-24111.00;5011471;28;20234;-73
2023/03/11 00:57:20;;;;;;;4.65;3.13;;;;;;;11.12;nan;-24127.63;5013661;28;20302;-73
2023/03/11 00:59:47;;;;;;;6.25;3.40;;;;;;;10.63;nan;-24113.97;5012257;28;20622;-74
2023/03/11 01:02:23;;;;;;;4.47;2.95;;;;;;;10.58;nan;-24112.56;5013819;28;20224;-74
2023/03/11 01:04:58;;;;;;;6.28;3.65;;;;;;;10.65;nan;-24114.53;5013977;28;20188;-74
2023/03/11 01:07:24;;;;;;;4.60;3.40;;;;;;;10.40;nan;-24107.63;5027723;28;20179;-73
2023/03/11 01:09:49;;;;;;;5.57;3.70;;;;;;;10.69;nan;-24115.66;5011484;28;20180;-72
2023/03/11 01:12:14;;;;;;;5.43;3.33;;;;;;;10.26;nan;-24103.53;5012481;28;20658;-74
2023/03/11 01:14:40;;;;;;;6.30;3.65;;;;;;;10.32;nan;-24105.34;5012173;28;20187;-72
2023/03/11 01:17:05;;;;;;;9.23;3.30;;;;;;;10.42;nan;-24108.16;5012045;28;20186;-71
2023/03/11 01:19:31;;;;;;;6.32;4.05;;;;;;;10.29;nan;-24104.38;5012005;28;20172;-73
2023/03/11 01:21:56;;;;;;;4.70;3.40;;;;;;;9.93;nan;-24094.47;5011987;28;20202;-72
2023/03/11 01:24:21;;;;;;;6.10;3.72;;;;;;;9.85;nan;-24092.06;5012222;28;20207;-73
2023/03/11 01:26:47;;;;;;;5.82;3.45;;;;;;;9.95;nan;-24094.91;5012078;28;20268;-73
2023/03/11 01:29:12;;;;;;;4.53;3.17;;;;;;;10.32;nan;-24105.34;5012138;28;20253;-73
2023/03/11 01:31:37;;;;;;;6.03;3.63;;;;;;;10.34;nan;-24105.91;5027057;28;20219;-73
2023/03/11 01:34:03;;;;;;;6.50;4.03;;;;;;;10.16;nan;-24100.84;5011825;28;20184;-73
2023/03/11 01:36:28;;;;;;;7.28;4.13;;;;;;;10.34;nan;-24105.91;5012404;28;20172;-74
2023/03/11 01:38:54;;;;;;;4.85;3.03;;;;;;;10.47;nan;-24109.44;5005922;28;20247;-72
2023/03/11 01:41:19;;;;;;;6.88;3.85;;;;;;;9.84;nan;-24091.94;5012482;28;20191;-73
2023/03/11 01:43:44;;;;;;;4.05;2.92;;;;;;;10.55;nan;-24111.84;5012283;28;20199;-72
2023/03/11 01:46:25;;;;;;;4.93;3.35;;;;;;;10.74;nan;-24117.06;5014428;28;20646;-73
2023/03/11 01:48:54;;;;;;;4.00;3.17;;;;;;;10.65;nan;-24114.53;4992354;28;20172;-73
2023/03/11 01:51:36;;;;;;;6.82;3.75;;;;;;;10.43;nan;-24108.47;4992857;28;20254;-72
2023/03/11 01:54:09;;;;;;;4.60;3.13;;;;;;;10.15;nan;-24100.53;4992772;28;20244;-73
2023/03/11 01:56:35;;;;;;;6.95;3.50;;;;;;;10.72;nan;-24116.34;4992377;28;20220;-72
2023/03/11 01:59:01;;;;;;;3.75;3.45;;;;;;;10.63;nan;-24114.09;4991371;28;20223;-73
2023/03/11 02:01:28;;;;;;;4.90;3.72;;;;;;;10.55;nan;-24111.69;4992440;28;20207;-70
2023/03/11 02:03:54;;;;;;;7.43;3.92;;;;;;;10.67;nan;-24114.94;4995745;28;20644;-73
2023/03/11 02:06:22;;;;;;;6.20;3.35;;;;;;;10.64;nan;-24114.38;4994727;28;20173;-73
2023/03/11 02:08:48;;;;;;;8.65;3.38;;;;;;;10.32;nan;-24105.22;4995131;28;20180;-72
2023/03/11 02:11:18;;;;;;;4.00;3.10;;;;;;;10.29;nan;-24104.38;4997952;28;20268;-72
2023/03/11 02:13:45;;;;;;;4.75;3.25;;;;;;;10.24;nan;-24103.09;4999199;28;20252;-72
2023/03/11 02:16:10;;;;;;;5.07;3.85;;;;;;;10.55;nan;-24111.84;5022308;28;20628;-72
2023/03/11 02:18:36;;;;;;;7.18;3.97;;;;;;;10.49;nan;-24110.16;5019164;28;20717;-72
2023/03/11 02:21:32;;;;;;;6.75;3.45;;;;;;;9.70;nan;-24088.13;5015564;28;20206;-72
2023/03/11 02:24:35;;;;;;;4.35;3.03;;;;;;;9.86;nan;-24092.50;5014109;28;20694;-72
2023/03/11 02:27:05;;;;;;;5.50;3.87;;;;;;;9.74;nan;-24089.25;5014325;28;20168;-73
2023/03/11 02:29:32;;;;;;;4.10;3.03;;;;;;;9.49;nan;-24082.19;5014116;28;20529;-72
2023/03/11 02:32:00;;;;;;;4.33;3.23;;;;;;;9.74;nan;-24089.09;5013362;28;20176;-73
2023/03/11 02:34:28;;;;;;;6.07;4.17;;;;;;;9.63;nan;-24086.13;5013744;28;20674;-72
2023/03/11 02:36:54;;;;;;;4.60;3.20;;;;;;;9.84;nan;-24091.78;5014653;28;20267;-73
2023/03/11 02:39:34;;;;;;;6.70;3.70;;;;;;;9.65;nan;-24086.56;5013087;28;20206;-72
2023/03/11 02:42:03;;;;;;;6.78;3.78;;;;;;;9.55;nan;-24083.75;5014135;28;20200;-72
2023/03/11 02:44:28;;;;;;;5.10;3.37;;;;;;;9.81;nan;-24091.09;5014028;28;20198;-73
2023/03/11 02:46:54;;;;;;;5.45;3.13;;;;;;;9.59;nan;-24085.00;5014886;28;20176;-73
2023/03/11 02:49:21;;;;;;;6.03;3.40;;;;;;;9.96;nan;-24095.19;5012873;28;20188;-74
2023/03/11 02:51:47;;;;;;;5.90;3.97;;;;;;;9.91;nan;-24093.78;5014531;28;20491;-73
2023/03/11 02:54:12;;;;;;;6.57;4.03;;;;;;;9.51;nan;-24082.59;5027269;28;20771;-73
2023/03/11 02:56:38;;;;;;;7.80;4.60;;;;;;;9.77;nan;-24089.94;4987281;28;1111849;-72
2023/03/11 02:59:04;;;;;;;8.20;4.30;;;;;;;9.83;nan;-24091.50;5014810;28;20215;-72
2023/03/11 03:01:29;;;;;;;4.53;3.33;;;;;;;9.74;nan;-24089.09;5014588;28;20651;-72
2023/03/11 03:03:54;;;;;;;4.80;3.60;;;;;;;9.92;nan;-24094.19;5014991;28;20265;-74
2023/03/11 03:06:20;;;;;;;5.20;4.03;;;;;;;9.98;nan;-24095.75;5013706;28;20690;-74
2023/03/11 03:08:45;;;;;;;5.83;4.03;;;;;;;10.10;nan;-24099.28;5014756;28;20651;-72
2023/03/11 03:11:11;;;;;;;5.28;3.78;;;;;;;10.10;nan;-24099.13;5014660;28;20593;-73
2023/03/11 03:13:36;;;;;;;5.30;4.13;;;;;;;9.98;nan;-24095.88;5014380;28;20281;-73
2023/03/11 03:16:02;;;;;;;7.80;4.55;;;;;;;9.79;nan;-24090.38;5014943;28;20600;-73
2023/03/11 03:18:27;;;;;;;5.37;3.43;;;;;;;9.77;nan;-24089.94;5015052;28;20184;-74
2023/03/11 03:20:53;;;;;;;8.07;3.90;;;;;;;9.64;nan;-24086.44;5014548;28;20180;-72
2023/03/11 03:23:19;;;;;;;9.03;4.10;;;;;;;9.25;nan;-24075.41;5014221;28;20582;-73
2023/03/11 03:25:44;;;;;;;5.43;3.70;;;;;;;8.97;nan;-24067.63;5014334;28;20338;-73
2023/03/11 03:28:11;;;;;;;5.10;3.20;;;;;;;9.20;nan;-24074.13;5029610;28;20550;-73
2023/03/11 03:30:37;;;;;;;9.17;3.40;;;;;;;9.32;nan;-24077.38;5014077;28;20643;-74
2023/03/11 03:33:03;;;;;;;8.70;3.63;;;;;;;9.72;nan;-24088.69;5014685;28;20675;-73
2023/03/11 03:35:29;;;;;;;3.40;3.00;;;;;;;9.84;nan;-24091.78;5014440;28;20204;-73
2023/03/11 03:37:56;;;;;;;6.03;3.70;;;;;;;10.05;nan;-24097.72;5014179;28;20663;-73
2023/03/11 03:40:22;;;;;;;4.40;3.23;;;;;;;9.72;nan;-24088.69;5014374;28;20169;-74
2023/03/11 03:42:47;;;;;;;4.87;2.57;;;;;;;9.76;nan;-24089.66;5029145;28;20176;-71
2023/03/11 03:45:13;;;;;;;3.97;3.00;;;;;;;9.60;nan;-24085.16;5013371;28;20257;-73
2023/03/11 03:47:38;;;;;;;7.67;3.40;;;;;;;9.64;nan;-24086.28;5014653;28;20295;-73
2023/03/11 03:50:06;;;;;;;5.17;3.50;;;;;;;9.74;nan;-24089.25;5015840;28;20281;-72
2023/03/11 03:52:31;;;;;;;4.17;3.30;;;;;;;9.92;nan;-24094.06;5014055;28;20184;-72
2023/03/11 03:54:56;;;;;;;4.00;3.07;;;;;;;10.00;nan;-24096.31;5013937;28;20180;-73
2023/03/11 03:57:22;;;;;;;5.45;2.83;;;;;;;9.92;nan;-24094.19;5013624;28;20224;-73
2023/03/11 03:59:47;;;;;;;4.10;3.03;;;;;;;10.02;nan;-24097.03;5013727;28;20266;-74
2023/03/11 04:02:13;;;;;;;5.97;3.03;;;;;;;9.86;nan;-24092.34;5013827;28;20654;-73
2023/03/11 04:04:38;;;;;;;5.70;3.47;;;;;;;9.91;nan;-24093.91;5013795;28;20206;-72
2023/03/11 04:07:05;;;;;;;6.67;3.60;;;;;;;9.85;nan;-24092.22;5014011;28;20271;-71
2023/03/11 04:09:32;;;;;;;5.73;3.73;;;;;;;9.93;nan;-24094.34;5013702;28;20180;-74
2023/03/11 04:11:58;;;;;;;4.30;3.00;;;;;;;10.00;nan;-24096.31;5013712;28;20719;-74
2023/03/11 04:14:24;;;;;;;6.93;3.93;;;;;;;10.08;nan;-24098.72;5013443;28;20651;-73
2023/03/11 04:16:49;;;;;;;5.30;3.37;;;;;;;10.04;nan;-24097.59;5013460;28;20266;-74
2023/03/11 04:19:15;;;;;;;6.35;3.53;;;;;;;9.73;nan;-24088.81;5013491;28;20543;-71
2023/03/11 04:21:40;;;;;;;4.57;3.13;;;;;;;9.89;nan;-24093.22;5013922;28;20642;-73
2023/03/11 04:24:06;;;;;;;8.40;3.83;;;;;;;9.61;nan;-24085.56;5012711;28;20286;-72
2023/03/11 04:26:31;;;;;;;3.63;3.15;;;;;;;9.91;nan;-24093.91;5013320;28;20176;-72
2023/03/11 04:28:57;;;;;;;4.33;3.20;;;;;;;9.66;nan;-24086.97;5013271;28;20211;-74
2023/03/11 04:31:22;;;;;;;6.47;4.10;;;;;;;10.05;nan;-24097.88;5006566;28;20188;-73
2023/03/11 04:33:47;;;;;;;8.82;3.38;;;;;;;9.82;nan;-24091.22;5014697;28;20188;-74
2023/03/11 04:36:13;;;;;;;6.13;3.70;;;;;;;9.81;nan;-24090.94;4997879;28;20180;-72
2023/03/11 04:38:39;;;;;;;6.27;3.93;;;;;;;9.94;nan;-24094.63;4999098;28;20192;-71
2023/03/11 04:41:05;;;;;;;4.40;2.97;;;;;;;9.70;nan;-24088.13;5013669;28;20572;-74
2023/03/11 04:44:06;;;;;;;5.93;3.20;;;;;;;10.03;nan;-24097.31;5000027;28;20188;-73
2023/03/11 04:46:32;;;;;;;5.15;3.83;;;;;;;10.03;nan;-24097.16;4995779;28;20229;-73
2023/03/11 04:48:58;;;;;;;8.60;3.40;;;;;;;9.79;nan;-24090.38;4999231;28;20196;-73
2023/03/11 04:51:23;;;;;;;4.73;3.60;;;;;;;10.05;nan;-24097.88;5000969;28;20173;-73
2023/03/11 04:53:48;;;;;;;4.60;3.43;;;;;;;10.14;nan;-24100.41;4998509;28;20184;-73
2023/03/11 04:56:14;;;;;;;4.90;3.57;;;;;;;10.17;nan;-24101.25;4998222;28;20630;-73
2023/03/11 04:58:39;;;;;;;4.57;3.20;;;;;;;9.79;nan;-24090.53;4998986;28;20215;-72
2023/03/11 05:01:04;;;;;;;11.93;3.80;;;;;;;10.09;nan;-24099.00;4998277;28;20582;-73
2023/03/11 05:03:30;;;;;;;9.17;3.53;;;;;;;9.99;nan;-24096.16;5002918;28;20176;-74
2023/03/11 05:05:55;;;;;;;5.03;2.90;;;;;;;10.27;nan;-24103.94;4998880;28;20195;-72
2023/03/11 05:08:22;;;;;;;4.20;2.88;;;;;;;10.40;nan;-24107.47;5029253;28;20188;-73
2023/03/11 05:10:49;;;;;;;4.97;2.83;;;;;;;10.42;nan;-24108.03;4998271;28;20180;-72
2023/03/11 05:13:15;;;;;;;6.18;3.42;;;;;;;10.55;nan;-24111.69;4997527;28;20290;-73
2023/03/11 05:15:41;;;;;;;3.65;2.85;;;;;;;10.45;nan;-24108.88;4997949;28;20196;-73
2023/03/11 05:18:06;;;;;;;4.93;3.13;;;;;;;10.58;nan;-24112.69;5013426;28;20176;-73
2023/03/11 05:20:32;;;;;;;5.20;3.10;;;;;;;10.49;nan;-24110.16;4997884;28;20195;-72
2023/03/11 05:22:58;;;;;;;3.67;2.70;;;;;;;10.69;nan;-24115.50;4998933;28;20277;-74
2023/03/11 05:25:23;;;;;;;3.63;2.80;;;;;;;10.43;nan;-24108.47;4997811;28;20215;-75
2023/03/11 05:27:49;;;;;;;3.58;3.03;;;;;;;10.81;nan;-24118.91;4998080;28;20198;-72
2023/03/11 05:30:15;;;;;;;4.95;2.95;;;;;;;10.84;nan;-24119.75;4998262;28;20205;-73
2023/03/11 05:32:41;;;;;;;4.82;2.88;;;;;;;10.90;nan;-24121.56;4998050;28;20247;-74
2023/03/11 05:35:07;;;;;;;6.55;3.45;;;;;;;10.84;nan;-24119.75;4997573;28;20632;-74
2023/03/11 05:37:34;;;;;;;11.48;3.30;;;;;;;11.04;nan;-24125.38;4998760;28;20187;-73
2023/03/11 05:39:59;;;;;;;4.18;3.00;;;;;;;10.76;nan;-24117.63;4997612;28;20227;-72
2023/03/11 05:42:25;;;;;;;3.20;2.53;;;;;;;11.03;nan;-24125.25;5013623;28;20187;-73
2023/03/11 05:44:50;;;;;;;4.28;3.00;;;;;;;11.41;nan;-24135.81;5012895;28;21163;-74
2023/03/11 05:47:17;;;;;;;4.88;3.15;;;;;;;11.40;nan;-24135.53;4998569;28;20191;-74
2023/03/11 05:49:42;;;;;;;4.90;3.40;;;;;;;11.44;nan;-24136.50;4998253;28;20184;-72
2023/03/11 05:52:08;;;;;;;5.18;3.83;;;;;;;10.86;nan;-24120.31;4999066;28;20172;-72
2023/03/11 05:54:34;;;;;;;6.20;3.80;;;;;;;11.01;nan;-24124.53;4997855;28;20184;-74
2023/03/11 05:56:59;;;;;;;6.10;3.20;;;;;;;11.17;nan;-24129.03;4997001;28;20240;-74
2023/03/11 05:59:25;;;;;;;6.03;3.22;;;;;;;11.58;nan;-24140.31;4997877;28;20191;-72
2023/03/11 06:01:50;;;;;;;5.38;3.13;;;;;;;11.42;nan;-24136.09;5013379;28;20258;-72
2023/03/11 06:04:16;;;;;;;3.75;2.75;;;;;;;11.77;nan;-24145.69;4998202;28;20214;-73
2023/03/11 06:06:41;;;;;;;4.38;3.08;;;;;;;11.91;nan;-24149.63;5012453;28;20185;-74
2023/03/11 06:09:12;;;;;;;9.77;3.42;;;;;;;12.02;nan;-24152.56;5013522;28;20243;-72
2023/03/11 06:11:37;;;;;;;6.18;3.42;;;;;;;12.00;nan;-24152.16;5002223;28;20188;-73
2023/03/11 06:14:03;;;;;;;4.68;3.22;;;;;;;11.78;nan;-24145.97;5012985;28;20650;-72
2023/03/11 06:16:28;;;;;;;6.07;3.65;;;;;;;12.17;nan;-24156.78;4997315;28;20682;-72
2023/03/11 06:18:53;;;;;;;4.30;3.17;;;;;;;12.47;nan;-24165.25;4998897;28;20176;-72
2023/03/11 06:21:22;;;;;;;7.15;3.08;;;;;;;12.39;nan;-24163.13;4996779;28;20180;-72
2023/03/11 06:23:49;;;;;;;5.18;3.13;;;;;;;12.71;nan;-24171.84;4997628;28;20180;-72
2023/03/11 06:26:19;;;;;;;4.20;2.80;;;;;;;12.94;nan;-24178.31;4997362;28;20283;-74
2023/03/11 06:28:45;;;;;;;5.07;3.33;;;;;;;13.19;nan;-24185.34;4998333;28;20180;-74
2023/03/11 06:31:15;;;;;;;5.05;2.80;;;;;;;13.26;nan;-24187.31;5010643;28;20196;-74
2023/03/11 06:33:40;;;;;;;9.23;2.90;;;;;;;13.32;nan;-24188.72;5011485;28;20243;-74
2023/03/11 06:36:07;;;;;;;3.92;2.40;;;;;;;13.61;nan;-24196.88;4993800;28;20188;-75
2023/03/11 06:38:33;;;;;;;5.82;2.65;;;;;;;13.64;nan;-24197.72;5010401;28;20196;-75
2023/03/11 06:41:17;;;;;;;2.53;2.05;;;;;;;13.70;nan;-24199.41;4998676;28;20184;-74
2023/03/11 06:43:42;;;;;;;3.38;2.42;;;;;;;13.77;nan;-24201.38;4997908;28;20210;-75
2023/03/11 06:46:11;;;;;;;5.72;3.00;;;;;;;13.74;nan;-24200.53;5028813;28;20194;-75
2023/03/11 06:48:36;;;;;;;2.63;2.28;;;;;;;13.80;nan;-24202.06;4999746;28;20214;-74
2023/03/11 06:51:02;;;;;;;2.78;2.10;;;;;;;14.04;nan;-24208.94;5003741;28;20659;-74
2023/03/11 06:53:29;;;;;;;1.83;1.70;;;;;;;14.12;nan;-24211.19;5000669;28;20605;-76
2023/03/11 06:56:05;;;;;;;3.03;2.20;;;;;;;14.11;nan;-24210.91;5000416;28;20327;-76
2023/03/11 06:58:31;;;;;;;2.17;1.80;;;;;;;14.07;nan;-24209.78;5000494;28;20250;-73
2023/03/11 07:01:01;;;;;;;5.53;2.33;;;;;;;13.81;nan;-24202.34;5000184;28;20184;-76
2023/03/11 07:03:27;;;;;;;2.10;1.90;;;;;;;14.04;nan;-24208.94;5000164;28;20256;-75
2023/03/11 07:05:53;;;;;;;3.67;2.15;;;;;;;13.61;nan;-24196.88;5000917;28;20221;-74
2023/03/11 07:08:18;;;;;;;4.40;1.80;;;;;;;13.36;nan;-24189.84;5000241;28;20188;-74
2023/03/11 07:10:45;;;;;;;3.15;2.20;;;;;;;14.11;nan;-24210.75;5020071;28;20188;-74
2023/03/11 07:13:11;;;;;;;2.47;1.90;;;;;;;13.99;nan;-24207.53;5014328;28;20216;-73
2023/03/11 07:15:36;;;;;;;2.35;1.80;;;;;;;13.86;nan;-24203.88;4995897;28;20218;-73
2023/03/11 07:18:02;;;;;;;2.15;1.90;;;;;;;14.21;nan;-24213.44;5007670;28;20207;-74
2023/03/11 07:20:27;;;;;;;2.65;1.90;;;;;;;14.24;nan;-24214.41;5014475;28;20172;-73
2023/03/11 07:22:52;;;;;;;1.70;1.50;;;;;;;14.85;nan;-24231.38;5013244;28;20183;-73
2023/03/11 07:25:18;;;;;;;2.20;1.92;;;;;;;14.98;nan;-24234.88;5013920;28;20656;-73
2023/03/11 07:27:43;;;;;;;1.60;1.50;;;;;;;14.81;nan;-24230.13;5014250;28;20172;-73
2023/03/11 07:30:10;;;;;;;1.95;1.65;;;;;;;15.23;nan;-24241.88;5014523;28;20255;-74
2023/03/11 07:32:35;;;;;;;2.30;1.90;;;;;;;15.49;nan;-24249.03;5012936;28;20180;-74
2023/03/11 07:35:00;;;;;;;2.20;1.80;;;;;;;15.42;nan;-24247.06;5013867;28;20247;-74
2023/03/11 07:37:26;;;;;;;1.65;1.45;;;;;;;15.27;nan;-24243.00;5013874;28;20176;-72
2023/03/11 07:39:51;;;;;;;2.53;1.80;;;;;;;15.62;nan;-24252.69;5014118;28;20172;-75
2023/03/11 07:42:17;;;;;;;2.90;2.10;;;;;;;15.58;nan;-24251.41;5028974;28;20238;-75
2023/03/11 07:44:42;;;;;;;2.63;1.60;;;;;;;15.53;nan;-24250.16;5022627;28;20761;-74
2023/03/11 07:47:08;;;;;;;2.17;1.80;;;;;;;15.68;nan;-24254.34;5025341;28;20194;-73
2023/03/11 07:49:33;;;;;;;2.38;2.15;;;;;;;15.73;nan;-24255.75;5014848;28;20183;-73
2023/03/11 07:51:58;;;;;;;3.97;2.10;;;;;;;15.88;nan;-24259.94;5015237;28;20191;-72
2023/03/11 07:54:24;;;;;;;2.85;2.05;;;;;;;15.77;nan;-24256.72;5013966;28;20183;-71
2023/03/11 07:56:49;;;;;;;2.78;1.90;;;;;;;16.22;nan;-24269.31;5013371;28;20323;-68
2023/03/11 07:59:15;;;;;;;3.95;2.80;;;;;;;16.47;nan;-24276.03;5012069;28;20222;-66
2023/03/11 08:01:45;;;;;;;3.70;2.50;;;;;;;16.00;nan;-24263.03;5013278;28;20179;-69
2023/03/11 08:04:13;;;;;;;4.28;2.13;;;;;;;16.07;nan;-24265.00;5013333;28;20227;-68
2023/03/11 08:06:41;;;;;;;2.70;2.20;;;;;;;16.20;nan;-24268.63;5013784;28;20664;-68
2023/03/11 08:09:08;;;;;;;1.80;1.70;;;;;;;16.23;nan;-24269.47;5011947;28;20577;-66
2023/03/11 08:11:34;;;;;;;3.85;1.77;;;;;;;16.44;nan;-24275.34;5013338;28;20180;-67
2023/03/11 08:14:00;;;;;;;2.25;1.45;;;;;;;16.55;nan;-24278.41;5012974;28;20172;-65
2023/03/11 08:16:26;;;;;;;1.80;1.50;;;;;;;16.99;nan;-24290.44;5012380;28;20233;-69
2023/03/11 08:18:52;;;;;;;3.28;2.20;;;;;;;16.79;nan;-24285.13;5013017;28;20207;-69
2023/03/11 08:21:21;;;;;;;3.58;2.05;;;;;;;16.87;nan;-24287.22;5011399;28;20212;-68
2023/03/11 08:23:47;;;;;;;2.28;1.63;;;;;;;16.77;nan;-24284.56;5008408;28;20286;-71
2023/03/11 08:26:16;;;;;;;3.13;1.98;;;;;;;16.66;nan;-24281.34;5027996;28;20714;-64
2023/03/11 08:28:42;;;;;;;2.90;2.00;;;;;;;17.30;nan;-24298.94;5012173;28;20187;-67
2023/03/11 08:31:24;;;;;;;2.35;1.80;;;;;;;17.03;nan;-24291.69;5012552;28;20192;-64
2023/03/11 08:34:00;;;;;;;1.92;1.60;;;;;;;17.21;nan;-24296.56;5010998;28;20612;-65
2023/03/11 08:36:26;;;;;;;2.45;1.95;;;;;;;17.17;nan;-24295.44;5005416;28;20184;-65
2023/03/11 08:38:52;;;;;;;2.03;1.58;;;;;;;17.28;nan;-24298.53;5012319;28;20183;-66
2023/03/11 08:41:18;;;;;;;3.03;1.40;;;;;;;17.39;nan;-24301.59;5012557;28;20241;-65
2023/03/11 08:43:43;;;;;;;1.23;1.13;;;;;;;17.20;nan;-24296.28;5012036;28;20229;-64
2023/03/11 08:46:19;;;;;;;1.55;1.30;;;;;;;17.30;nan;-24298.94;5012460;28;20172;-65
2023/03/11 08:48:45;;;;;;;1.25;1.15;;;;;;;17.33;nan;-24299.91;5012441;28;20168;-65
2023/03/11 08:51:11;;;;;;;1.52;1.05;;;;;;;17.59;nan;-24307.19;5012696;28;20164;-64
2023/03/11 08:53:37;;;;;;;4.53;1.20;;;;;;;17.52;nan;-24305.09;5012290;28;20183;-64
2023/03/11 08:56:02;;;;;;;1.00;1.00;;;;;;;17.19;nan;-24296.16;5012396;28;20227;-64
2023/03/11 08:58:28;;;;;;;1.75;1.40;;;;;;;17.62;nan;-24307.88;5010616;28;20246;-65
2023/03/11 09:00:54;;;;;;;4.05;2.53;;;;;;;17.52;nan;-24305.22;5005624;28;20313;-64
2023/03/11 09:03:19;;;;;;;3.55;2.47;;;;;;;17.67;nan;-24309.28;5012010;28;20176;-64
2023/03/11 09:05:45;;;;;;;1.98;1.52;;;;;;;17.82;nan;-24313.31;5012195;28;20200;-64
2023/03/11 09:08:10;;;;;;;5.13;2.78;;;;;;;17.86;nan;-24314.44;5011880;28;20164;-64
2023/03/11 09:10:35;;;;;;;6.15;2.25;;;;;;;17.67;nan;-24309.41;5011578;28;20252;-64
2023/03/11 09:13:01;;;;;;;6.05;3.30;;;;;;;18.25;nan;-24325.16;5011623;28;20172;-65
2023/03/11 09:15:27;;;;;;;4.03;2.03;;;;;;;18.03;nan;-24319.19;5012006;28;20172;-64
2023/03/11 09:17:53;;;;;;;3.03;2.10;;;;;;;18.14;nan;-24322.25;5011430;28;20219;-64
2023/03/11 09:20:18;;;;;;;3.65;2.17;;;;;;;18.52;nan;-24332.81;5011568;28;20184;-65
2023/03/11 09:22:44;;;;;;;2.38;1.42;;;;;;;18.60;nan;-24334.91;5011723;28;20172;-64
2023/03/11 09:25:12;;;;;;;1.73;1.33;;;;;;;18.30;nan;-24326.69;5011649;28;20671;-64
2023/03/11 09:27:37;;;;;;;2.70;1.70;;;;;;;17.99;nan;-24318.06;5011493;28;20560;-64
2023/03/11 09:30:03;;;;;;;3.03;1.75;;;;;;;17.72;nan;-24310.66;5011831;28;20646;-65
2023/03/11 09:32:29;;;;;;;1.85;1.60;;;;;;;17.73;nan;-24310.81;5011949;28;20168;-64
2023/03/11 09:34:54;;;;;;;1.70;1.50;;;;;;;17.79;nan;-24312.47;5011511;28;20275;-64
2023/03/11 09:37:19;;;;;;;3.63;2.05;;;;;;;17.85;nan;-24314.28;5011614;28;20160;-65
2023/03/11 09:39:45;;;;;;;3.55;2.17;;;;;;;17.83;nan;-24313.59;5005076;28;20282;-64
2023/03/11 09:42:26;;;;;;;2.72;1.80;;;;;;;17.46;nan;-24303.56;5011253;28;20262;-64
2023/03/11 09:45:30;;;;;;;2.95;1.65;;;;;;;18.15;nan;-24322.53;5011547;28;20685;-65
2023/03/11 09:48:15;;;;;;;3.30;1.60;;;;;;;17.44;nan;-24303.00;5011430;28;20181;-65
2023/03/11 09:50:52;;;;;;;4.57;2.80;;;;;;;18.25;nan;-24325.16;5011631;28;20172;-64
2023/03/11 09:53:46;;;;;;;1.45;1.35;;;;;;;18.24;nan;-24324.88;5026936;28;20528;-65
2023/03/11 09:56:19;;;;;;;3.78;1.58;;;;;;;18.49;nan;-24331.84;5005522;28;20228;-64
2023/03/11 09:58:46;;;;;;;6.40;1.40;;;;;;;18.72;nan;-24338.13;5010479;28;20253;-64
2023/03/11 10:01:29;;;;;;;1.85;1.45;;;;;;;18.86;nan;-24342.16;5011086;28;20631;-64
2023/03/11 10:04:02;;;;;;;2.90;1.55;;;;;;;18.86;nan;-24342.03;5011518;28;20178;-63
2023/03/11 10:06:29;;;;;;;1.50;1.20;;;;;;;19.04;nan;-24347.03;5010844;28;20247;-64
2023/03/11 10:09:22;;;;;;;2.53;1.50;;;;;;;18.66;nan;-24336.44;5010425;28;20321;-64
2023/03/11 10:11:54;;;;;;;8.25;2.08;;;;;;;18.90;nan;-24343.13;5011613;28;20191;-64
2023/03/11 10:14:29;;;;;;;2.58;1.90;;;;;;;18.79;nan;-24340.06;5011533;28;20559;-63
2023/03/11 10:17:20;;;;;;;1.65;1.40;;;;;;;18.78;nan;-24339.78;5010648;28;20186;-64
2023/03/11 10:19:53;;;;;;;1.20;1.10;;;;;;;18.41;nan;-24329.75;5019068;28;20199;-63
2023/03/11 10:22:29;;;;;;;1.65;1.20;;;;;;;18.21;nan;-24324.19;5011729;28;20271;-62
2023/03/11 10:25:12;;;;;;;1.77;1.27;;;;;;;18.63;nan;-24335.63;5014919;28;20568;-64
2023/03/11 10:28:04;;;;;;;1.63;1.52;;;;;;;18.79;nan;-24340.22;5015097;28;20175;-62
2023/03/11 10:30:42;;;;;;;1.60;1.20;;;;;;;18.79;nan;-24340.22;5015602;28;20172;-62
2023/03/11 10:33:13;;;;;;;4.60;1.80;;;;;;;19.10;nan;-24348.56;5015468;28;20175;-62
2023/03/11 10:35:43;;;;;;;2.33;1.38;;;;;;;18.91;nan;-24343.56;5014596;28;20172;-61
2023/03/11 10:38:21;;;;;;;2.28;1.70;;;;;;;18.76;nan;-24339.38;5013717;28;20510;-61
2023/03/11 10:40:52;;;;;;;1.77;1.58;;;;;;;18.51;nan;-24332.56;5014459;28;20171;-62
2023/03/11 10:43:33;;;;;;;2.10;1.58;;;;;;;18.65;nan;-24336.19;5014534;28;20222;-63
2023/03/11 10:46:01;;;;;;;1.25;1.15;;;;;;;19.11;nan;-24348.97;5014371;28;20184;-62
2023/03/11 10:48:27;;;;;;;1.60;1.50;;;;;;;19.00;nan;-24345.78;5014476;28;20269;-62
2023/03/11 10:51:10;;;;;;;2.67;1.60;;;;;;;19.36;nan;-24355.94;5014364;28;20200;-63
2023/03/11 10:53:45;;;;;;;3.42;2.10;;;;;;;19.17;nan;-24350.66;5015125;28;20188;-62
2023/03/11 10:56:23;;;;;;;2.70;1.77;;;;;;;18.86;nan;-24342.03;5014751;28;20219;-62
2023/03/11 10:58:49;;;;;;;2.30;1.80;;;;;;;19.01;nan;-24346.06;5014780;28;20172;-63
2023/03/11 11:01:16;;;;;;;3.25;2.13;;;;;;;19.14;nan;-24349.81;5014509;28;20183;-61
2023/03/11 11:03:48;;;;;;;2.95;1.80;;;;;;;19.03;nan;-24346.75;5014779;28;20183;-62
2023/03/11 11:06:32;;;;;;;2.90;2.05;;;;;;;19.18;nan;-24350.94;5014727;28;20183;-62
2023/03/11 11:09:21;;;;;;;3.90;1.60;;;;;;;19.92;nan;-24371.09;5014553;28;20192;-62
2023/03/11 11:12:00;;;;;;;2.25;1.80;;;;;;;20.00;nan;-24373.47;5014927;28;20172;-62
2023/03/11 11:14:40;;;;;;;2.75;1.45;;;;;;;19.92;nan;-24371.22;5014788;28;20176;-62
2023/03/11 11:17:22;;;;;;;2.13;1.60;;;;;;;19.69;nan;-24364.84;5014505;28;20183;-62
2023/03/11 11:19:48;;;;;;;3.10;1.60;;;;;;;19.64;nan;-24363.44;5014515;28;20652;-62
2023/03/11 11:22:17;;;;;;;1.65;1.40;;;;;;;19.28;nan;-24353.56;5014166;28;20275;-62
2023/03/11 11:24:45;;;;;;;1.33;1.13;;;;;;;19.02;nan;-24346.47;5014282;28;20586;-61
2023/03/11 11:27:21;;;;;;;1.23;1.10;;;;;;;19.22;nan;-24352.03;5014242;28;20187;-62
2023/03/11 11:30:22;;;;;;;2.15;1.50;;;;;;;19.00;nan;-24345.91;5014633;28;20176;-63
2023/03/11 11:32:47;;;;;;;1.50;1.40;;;;;;;18.74;nan;-24338.69;5013414;28;20542;-61
2023/03/11 11:35:15;;;;;;;1.67;1.27;;;;;;;18.94;nan;-24344.38;5013671;28;20305;-63
2023/03/11 11:37:59;;;;;;;2.40;1.83;;;;;;;19.00;nan;-24345.78;5014078;28;20212;-62
2023/03/11 11:40:32;;;;;;;3.42;1.60;;;;;;;18.66;nan;-24336.44;5013929;28;20775;-60
2023/03/11 11:43:04;;;;;;;3.50;1.80;;;;;;;19.04;nan;-24346.91;5013676;28;20168;-62
2023/03/11 11:45:40;;;;;;;1.35;1.13;;;;;;;19.25;nan;-24352.88;5014127;28;20230;-63
2023/03/11 11:48:32;;;;;;;1.55;1.33;;;;;;;19.45;nan;-24358.31;5013890;28;20186;-63
2023/03/11 11:51:03;;;;;;;1.15;1.05;;;;;;;19.64;nan;-24363.44;5013992;28;20173;-64